Terminal Aerodrome Forecast
Issued by NWS

Home | Current Version | Previous Version | Text Only | Print | Product List | Glossary On
Versions: 1 2 3 4 5 6 7 8 9 10 11 12
291
FTUS42 TJSJ 251735
TAFJSJ
TAF
TJSJ 251735Z 2518/2618 08014KT P6SM SCT025 SCT080
     FM252100 10010KT P6SM FEW030 SCT100
     FM260200 VRB03KT P6SM FEW030
     FM261200 07012KT P6SM SCT030=

USA.gov is the U.S. government's official web portal to all federal, state and local government web resources and services.